Time;durP1;ratioP1;P1;durP2;ratioP2;P2;SDS_P1;SDS_P2;PMS_P1;PMS_P2;Temp;Humidity;BMP_temperature;BMP_pressure;BME280_temperature;BME280_humidity;BME280_pressure;Samples;Min_cycle;Max_cycle;Signal;HPM_P1;HPM_P2
2022/11/13 00:01:49;;;;;;;34.25;14.38;;;6.20;1.00;;;;;;5050808;28;20451;-49
2022/11/13 00:04:15;;;;;;;29.30;14.57;;;6.00;1.00;;;;;;5050549;28;20385;-51
2022/11/13 00:06:40;;;;;;;28.08;14.18;;;6.00;1.00;;;;;;5049989;28;20436;-49
2022/11/13 00:09:08;;;;;;;30.07;14.60;;;6.00;1.00;;;;;;5050627;28;20385;-49
2022/11/13 00:11:34;;;;;;;29.13;14.35;;;6.00;1.00;;;;;;5049427;28;20393;-49
2022/11/13 00:13:59;;;;;;;26.95;15.05;;;5.90;1.00;;;;;;5032700;28;20396;-49
2022/11/13 00:16:25;;;;;;;27.83;15.20;;;5.80;1.00;;;;;;5050016;28;20388;-49
2022/11/13 00:18:51;;;;;;;27.07;14.43;;;7.30;1.00;;;;;;5050384;28;20835;-49
2022/11/13 00:21:19;;;;;;;34.70;14.37;;;6.10;1.00;;;;;;5050111;28;20447;-55
2022/11/13 00:23:45;;;;;;;27.63;13.95;;;5.50;1.00;;;;;;5050487;28;20381;-49
2022/11/13 00:26:14;;;;;;;27.87;14.43;;;5.60;1.00;;;;;;5050449;28;20409;-49
2022/11/13 00:28:41;;;;;;;29.27;15.25;;;5.50;1.00;;;;;;5049732;28;20378;-49
2022/11/13 00:31:07;;;;;;;30.80;16.00;;;5.50;1.00;;;;;;5050451;28;20385;-52
2022/11/13 00:33:33;;;;;;;41.65;14.52;;;5.40;1.00;;;;;;5049138;28;20416;-51
2022/11/13 00:36:04;;;;;;;32.45;15.20;;;5.40;1.00;;;;;;5050039;28;20394;-49
2022/11/13 00:38:29;;;;;;;26.65;14.90;;;5.30;1.00;;;;;;5049333;28;20382;-52
2022/11/13 00:40:55;;;;;;;28.40;14.82;;;5.30;1.00;;;;;;5049908;28;20727;-51
2022/11/13 00:43:20;;;;;;;29.63;13.40;;;7.10;1.00;;;;;;5049286;28;20378;-57
2022/11/13 00:45:46;;;;;;;28.38;13.60;;;5.60;1.00;;;;;;5050047;28;20851;-51
2022/11/13 00:48:12;;;;;;;34.83;13.63;;;6.30;1.00;;;;;;5050396;28;20417;-51
2022/11/13 00:50:37;;;;;;;31.13;13.00;;;5.40;1.00;;;;;;5049158;28;20385;-51
2022/11/13 00:53:03;;;;;;;40.97;13.20;;;6.50;1.00;;;;;;5050342;28;20776;-51
2022/11/13 00:55:28;;;;;;;31.13;12.57;;;5.20;1.00;;;;;;5049691;28;20374;-51
2022/11/13 00:57:54;;;;;;;30.40;13.87;;;5.10;1.00;;;;;;5049629;28;20794;-51
2022/11/13 01:00:19;;;;;;;24.80;11.85;;;6.70;1.00;;;;;;5049221;28;20363;-56
2022/11/13 01:02:45;;;;;;;29.47;12.23;;;5.10;1.00;;;;;;5031840;28;20425;-51
2022/11/13 01:05:11;;;;;;;28.42;12.93;;;5.00;1.00;;;;;;5049650;28;20755;-51
2022/11/13 01:07:37;;;;;;;29.20;12.27;;;5.00;1.00;;;;;;5049371;28;20397;-50
2022/11/13 01:10:04;;;;;;;21.40;11.50;;;5.40;1.00;;;;;;5049737;28;20389;-50
2022/11/13 01:12:30;;;;;;;29.05;11.75;;;5.10;1.00;;;;;;5049211;28;20381;-51
2022/11/13 01:14:56;;;;;;;30.37;11.00;;;5.30;1.00;;;;;;5049556;28;20388;-51
2022/11/13 01:17:21;;;;;;;28.38;12.00;;;6.90;1.00;;;;;;5049220;28;20461;-55
2022/11/13 01:19:47;;;;;;;29.57;11.80;;;6.30;1.00;;;;;;5049518;28;20376;-53
2022/11/13 01:22:13;;;;;;;37.00;13.03;;;6.40;1.00;;;;;;5051362;28;20392;-50
2022/11/13 01:24:39;;;;;;;28.23;11.30;;;4.90;1.00;;;;;;5053015;28;20386;-50
2022/11/13 01:27:04;;;;;;;21.92;11.15;;;4.90;1.00;;;;;;5054354;28;20405;-52
2022/11/13 01:29:30;;;;;;;24.90;11.13;;;4.90;1.00;;;;;;5053488;28;20373;-50
2022/11/13 01:31:56;;;;;;;36.78;11.45;;;6.80;1.00;;;;;;5054131;28;20377;-50
2022/11/13 01:34:21;;;;;;;30.30;11.80;;;4.90;1.00;;;;;;5052639;28;20480;-56
2022/11/13 01:36:47;;;;;;;24.08;12.45;;;4.90;1.00;;;;;;5053356;28;20727;-50
2022/11/13 01:39:13;;;;;;;28.20;11.77;;;6.30;1.00;;;;;;5053890;28;20396;-51
2022/11/13 01:41:39;;;;;;;26.23;12.20;;;5.30;1.00;;;;;;5052520;28;20377;-50
2022/11/13 01:44:10;;;;;;;26.38;12.63;;;6.10;1.00;;;;;;5053567;28;20389;-50
2022/11/13 01:46:44;;;;;;;23.70;11.75;;;5.70;1.00;;;;;;5052317;28;20762;-50
2022/11/13 01:49:09;;;;;;;30.10;11.63;;;5.70;1.00;;;;;;5053085;28;20390;-50
2022/11/13 01:51:41;;;;;;;26.53;11.17;;;5.00;1.00;;;;;;5052628;28;20380;-50
2022/11/13 01:54:11;;;;;;;22.38;10.15;;;4.70;1.00;;;;;;5053403;28;20389;-50
2022/11/13 01:56:38;;;;;;;23.67;11.23;;;4.60;1.00;;;;;;5052279;28;20385;-50
2022/11/13 01:59:10;;;;;;;25.52;11.73;;;4.60;1.00;;;;;;5052928;28;20392;-50
2022/11/13 02:01:36;;;;;;;21.08;9.88;;;4.50;1.00;;;;;;5052747;28;20401;-50
2022/11/13 02:04:02;;;;;;;19.57;9.90;;;4.40;1.00;;;;;;5052994;28;20382;-50
2022/11/13 02:06:32;;;;;;;31.15;11.20;;;4.30;1.00;;;;;;5052101;28;20405;-50
2022/11/13 02:08:58;;;;;;;17.08;9.50;;;6.10;1.00;;;;;;5053036;28;20385;-50
2022/11/13 02:11:24;;;;;;;22.42;10.48;;;4.90;1.00;;;;;;5052533;28;20385;-51
2022/11/13 02:13:50;;;;;;;19.05;9.48;;;4.00;1.00;;;;;;5034767;28;20394;-52
2022/11/13 02:16:18;;;;;;;27.10;10.27;;;4.10;1.00;;;;;;5052711;28;20439;-50
2022/11/13 02:18:44;;;;;;;22.83;10.57;;;4.70;1.00;;;;;;5052248;28;20435;-50
2022/11/13 02:21:34;;;;;;;30.23;10.68;;;4.10;1.00;;;;;;5052573;28;20382;-51
2022/11/13 02:24:08;;;;;;;19.75;9.60;;;4.80;1.00;;;;;;5052606;28;20373;-50
2022/11/13 02:26:35;;;;;;;20.88;9.82;;;3.80;1.00;;;;;;5051720;28;20437;-50
2022/11/13 02:29:00;;;;;;;29.80;9.55;;;3.90;1.00;;;;;;5052624;28;20424;-51
2022/11/13 02:31:26;;;;;;;24.00;10.10;;;5.80;1.00;;;;;;5051721;28;20409;-50
2022/11/13 02:33:52;;;;;;;17.30;8.98;;;3.80;1.00;;;;;;5050880;28;20408;-51
2022/11/13 02:36:20;;;;;;;22.07;10.43;;;3.80;1.00;;;;;;5052727;28;20397;-50
2022/11/13 02:38:46;;;;;;;16.07;9.57;;;3.70;1.00;;;;;;5052740;28;20389;-50
2022/11/13 02:41:12;;;;;;;21.17;9.93;;;3.70;1.00;;;;;;5052889;28;20386;-50
2022/11/13 02:43:37;;;;;;;17.13;9.03;;;3.80;1.00;;;;;;5052367;28;20384;-50
2022/11/13 02:46:03;;;;;;;19.85;9.85;;;5.60;1.00;;;;;;5052067;28;20917;-50
2022/11/13 02:48:28;;;;;;;19.70;10.40;;;3.70;1.00;;;;;;5051241;28;20382;-52
2022/11/13 02:50:54;;;;;;;22.15;10.38;;;4.30;1.00;;;;;;5052405;28;20389;-50
2022/11/13 02:53:20;;;;;;;33.93;9.87;;;3.70;1.00;;;;;;5051834;28;20470;-55
2022/11/13 02:55:45;;;;;;;31.58;9.50;;;3.80;1.00;;;;;;5051631;28;20378;-50
2022/11/13 02:58:11;;;;;;;20.63;9.13;;;3.70;1.00;;;;;;5051700;28;20773;-51
2022/11/13 03:00:36;;;;;;;27.50;10.10;;;3.80;1.00;;;;;;5051994;28;20443;-50
2022/11/13 03:03:02;;;;;;;30.73;10.90;;;3.70;1.00;;;;;;5052083;28;20878;-49
2022/11/13 03:05:28;;;;;;;40.37;11.20;;;3.70;1.00;;;;;;5050847;28;20405;-50
2022/11/13 03:07:53;;;;;;;35.00;11.90;;;4.50;1.00;;;;;;5034202;28;20728;-50
2022/11/13 03:10:19;;;;;;;24.83;10.43;;;3.80;1.00;;;;;;5051790;28;20421;-50
2022/11/13 03:12:45;;;;;;;22.80;11.65;;;3.80;1.00;;;;;;5051063;28;20387;-50
2022/11/13 03:15:10;;;;;;;30.20;11.20;;;3.90;1.00;;;;;;5051445;28;20401;-50
2022/11/13 03:17:36;;;;;;;22.00;10.60;;;3.90;1.00;;;;;;5050966;28;20405;-50
2022/11/13 03:20:03;;;;;;;24.10;10.38;;;4.30;1.00;;;;;;5051862;28;20393;-50
2022/11/13 03:22:29;;;;;;;25.42;10.38;;;3.90;1.00;;;;;;5051232;28;20462;-50
2022/11/13 03:24:54;;;;;;;21.90;9.93;;;4.00;1.00;;;;;;5051783;28;20815;-50
2022/11/13 03:27:20;;;;;;;29.45;10.25;;;5.00;1.00;;;;;;5051119;28;20444;-56
2022/11/13 03:29:46;;;;;;;28.13;10.52;;;3.90;1.00;;;;;;5051293;28;20389;-50
2022/11/13 03:32:11;;;;;;;31.60;11.67;;;3.90;14.70;;;;;;5051372;28;20463;-50
2022/11/13 03:34:38;;;;;;;25.65;10.30;;;4.00;10.50;;;;;;5050581;28;20424;-50
2022/11/13 03:37:03;;;;;;;25.73;11.57;;;4.00;21.40;;;;;;5051670;28;20377;-50
2022/11/13 03:39:29;;;;;;;28.53;9.87;;;4.60;31.00;;;;;;5050603;28;20451;-50
2022/11/13 03:41:54;;;;;;;40.80;11.03;;;4.00;78.00;;;;;;5052055;28;20370;-50
2022/11/13 03:44:20;;;;;;;40.60;9.93;;;4.20;57.50;;;;;;5050770;28;20370;-50
2022/11/13 03:46:46;;;;;;;27.27;9.60;;;4.20;38.80;;;;;;5050805;28;20401;-51
2022/11/13 03:49:11;;;;;;;37.80;9.20;;;4.30;2.80;;;;;;5050881;28;20387;-50
2022/11/13 03:51:37;;;;;;;23.47;8.87;;;4.20;1.00;;;;;;5049815;28;20448;-50
2022/11/13 03:54:03;;;;;;;28.40;9.00;;;4.10;1.00;;;;;;5051072;28;20477;-50
2022/11/13 03:56:28;;;;;;;40.10;9.83;;;3.90;1.00;;;;;;5050371;28;20730;-50
2022/11/13 03:58:54;;;;;;;20.75;9.48;;;3.80;1.00;;;;;;5051026;28;20380;-51
2022/11/13 04:01:19;;;;;;;25.00;9.10;;;3.70;1.00;;;;;;5050873;28;20777;-50
2022/11/13 04:03:45;;;;;;;22.45;9.30;;;3.70;4.90;;;;;;5049774;28;20384;-50
2022/11/13 04:06:10;;;;;;;17.03;8.27;;;3.70;1.00;;;;;;5050524;28;20416;-53
2022/11/13 04:08:36;;;;;;;18.80;8.48;;;4.70;1.00;;;;;;5050301;28;20859;-50
2022/11/13 04:11:06;;;;;;;19.43;8.67;;;3.50;1.00;;;;;;5050226;28;20404;-50
2022/11/13 04:13:32;;;;;;;23.25;8.00;;;3.40;1.00;;;;;;5049701;28;20404;-50
2022/11/13 04:15:58;;;;;;;20.83;8.65;;;4.00;11.10;;;;;;5050848;28;20894;-50
2022/11/13 04:18:23;;;;;;;19.83;7.03;;;3.30;1.00;;;;;;5049947;28;20450;-56
2022/11/13 04:20:49;;;;;;;20.33;9.70;;;3.20;5.30;;;;;;5050566;28;20381;-51
2022/11/13 04:23:16;;;;;;;19.13;7.40;;;3.20;11.00;;;;;;5050384;28;20400;-50
2022/11/13 04:25:42;;;;;;;19.83;8.52;;;3.10;1.00;;;;;;5049955;28;20433;-50
2022/11/13 04:28:09;;;;;;;27.38;9.32;;;3.00;21.20;;;;;;5050455;28;20859;-50
2022/11/13 04:30:35;;;;;;;23.93;8.27;;;3.00;45.40;;;;;;5049979;28;20381;-50
2022/11/13 04:33:01;;;;;;;26.73;7.87;;;3.00;37.50;;;;;;5050386;28;20462;-50
2022/11/13 04:35:26;;;;;;;31.90;8.98;;;3.00;24.00;;;;;;5049746;28;20424;-53
2022/11/13 04:37:52;;;;;;;29.23;9.70;;;3.00;46.30;;;;;;5050227;28;20389;-50
2022/11/13 04:40:18;;;;;;;25.73;9.40;;;3.00;57.90;;;;;;5049767;28;20405;-50
2022/11/13 04:42:49;;;;;;;21.80;7.57;;;3.10;53.40;;;;;;5049406;28;20903;-50
2022/11/13 04:45:20;;;;;;;21.23;9.63;;;2.90;42.30;;;;;;5050199;28;20385;-50
2022/11/13 04:47:46;;;;;;;25.63;8.60;;;2.90;80.60;;;;;;5031481;28;20636;-50
2022/11/13 04:50:13;;;;;;;19.58;8.85;;;2.90;40.90;;;;;;5050140;28;20386;-50
2022/11/13 04:52:39;;;;;;;18.23;8.37;;;2.80;29.20;;;;;;5048931;28;20870;-50
2022/11/13 04:55:05;;;;;;;16.07;7.37;;;2.80;71.50;;;;;;5049923;28;20382;-50
2022/11/13 04:57:31;;;;;;;18.23;7.60;;;2.80;86.30;;;;;;5048310;28;20381;-50
2022/11/13 04:59:57;;;;;;;30.42;8.40;;;3.80;70.60;;;;;;5050066;28;20374;-50
2022/11/13 05:02:23;;;;;;;18.40;8.10;;;2.80;58.20;;;;;;5049400;28;20446;-56
2022/11/13 05:04:49;;;;;;;31.45;8.90;;;2.80;71.50;;;;;;5031614;28;20938;-51
2022/11/13 05:07:14;;;;;;;19.58;8.20;;;2.90;63.90;;;;;;5049517;28;20854;-51
2022/11/13 05:09:40;;;;;;;19.47;9.10;;;2.80;46.50;;;;;;5048926;28;20386;-51
2022/11/13 05:12:07;;;;;;;31.03;10.13;;;2.80;82.10;;;;;;5049482;28;20380;-50
2022/11/13 05:14:36;;;;;;;18.85;8.55;;;2.80;96.80;;;;;;5049461;28;20400;-51
2022/11/13 05:17:03;;;;;;;21.10;9.05;;;2.80;99.90;;;;;;5049819;28;20403;-50
2022/11/13 05:19:28;;;;;;;26.60;9.00;;;2.90;99.90;;;;;;5049037;28;20373;-51
2022/11/13 05:21:54;;;;;;;22.07;7.97;;;2.90;97.90;;;;;;5049627;28;20377;-52
2022/11/13 05:24:20;;;;;;;23.25;8.70;;;2.90;99.90;;;;;;5049991;28;20465;-52
2022/11/13 05:26:45;;;;;;;25.98;7.90;;;2.70;99.90;;;;;;5049203;28;20455;-51
2022/11/13 05:29:11;;;;;;;28.70;8.60;;;3.10;99.90;;;;;;5049661;28;20735;-52
2022/11/13 05:31:37;;;;;;;23.77;8.80;;;3.20;99.90;;;;;;5049055;28;20458;-50
2022/11/13 05:34:03;;;;;;;18.23;7.83;;;3.20;99.90;;;;;;5049801;28;20413;-52
2022/11/13 05:36:29;;;;;;;23.83;9.70;;;3.30;99.90;;;;;;5031144;28;20749;-50
2022/11/13 05:38:54;;;;;;;29.63;10.27;;;3.30;99.90;;;;;;5049563;28;20377;-51
2022/11/13 05:41:21;;;;;;;21.30;8.77;;;4.00;99.90;;;;;;5049610;28;20382;-50
2022/11/13 05:43:47;;;;;;;24.10;8.77;;;3.50;99.90;;;;;;5048889;28;20374;-52
2022/11/13 05:46:15;;;;;;;22.00;8.77;;;3.70;99.90;;;;;;5049761;28;20406;-51
2022/11/13 05:48:42;;;;;;;24.85;9.45;;;3.70;99.90;;;;;;5048860;28;20378;-51
2022/11/13 05:51:13;;;;;;;17.45;9.00;;;3.80;99.90;;;;;;5049665;28;20384;-52
2022/11/13 05:53:40;;;;;;;18.80;7.80;;;3.80;99.90;;;;;;5048950;28;20374;-50
2022/11/13 05:56:09;;;;;;;30.40;8.20;;;3.80;99.90;;;;;;5049384;28;20431;-53
2022/11/13 05:58:35;;;;;;;32.03;10.20;;;3.90;99.90;;;;;;5048747;28;20382;-51
2022/11/13 06:01:11;;;;;;;30.08;7.43;;;4.70;99.90;;;;;;5049198;28;20710;-51
2022/11/13 06:03:37;;;;;;;22.58;6.47;;;4.00;99.90;;;;;;5049197;28;20492;-53
2022/11/13 06:06:07;;;;;;;26.20;6.68;;;4.00;99.90;;;;;;5049448;28;20484;-53
2022/11/13 06:08:33;;;;;;;27.25;8.20;;;4.00;99.90;;;;;;5050940;28;20822;-51
2022/11/13 06:11:00;;;;;;;19.98;6.15;;;3.80;99.90;;;;;;5053155;28;20369;-52
2022/11/13 06:13:27;;;;;;;23.52;6.40;;;4.00;99.90;;;;;;5052216;28;20417;-52
2022/11/13 06:15:53;;;;;;;19.87;5.67;;;4.00;99.90;;;;;;5052335;28;20916;-51
2022/11/13 06:18:22;;;;;;;27.27;6.70;;;4.10;99.90;;;;;;5052871;28;20448;-52
2022/11/13 06:20:48;;;;;;;14.38;6.75;;;4.10;96.10;;;;;;5051638;28;20389;-52
2022/11/13 06:23:14;;;;;;;24.83;6.40;;;4.00;87.90;;;;;;5052809;28;20708;-52
2022/11/13 06:25:40;;;;;;;17.98;6.57;;;4.80;77.30;;;;;;5051585;28;20492;-53
2022/11/13 06:28:05;;;;;;;32.23;7.13;;;4.00;94.70;;;;;;5052528;28;20780;-53
2022/11/13 06:30:31;;;;;;;33.35;7.30;;;4.00;44.00;;;;;;5051462;28;20374;-51
2022/11/13 06:32:56;;;;;;;31.13;6.77;;;4.00;47.60;;;;;;5052337;28;20451;-52
2022/11/13 06:35:22;;;;;;;38.75;6.50;;;4.00;72.70;;;;;;5052315;28;20373;-52
2022/11/13 06:37:48;;;;;;;27.63;6.37;;;4.00;61.10;;;;;;5051960;28;20404;-52
2022/11/13 06:40:13;;;;;;;30.83;6.90;;;3.90;46.10;;;;;;5052452;28;20785;-52
2022/11/13 06:42:39;;;;;;;23.13;5.90;;;3.90;52.20;;;;;;5051285;28;20443;-52
2022/11/13 06:45:05;;;;;;;17.50;6.30;;;3.90;54.30;;;;;;5052173;28;20855;-52
2022/11/13 06:47:31;;;;;;;14.90;5.85;;;3.90;28.80;;;;;;5051282;28;20499;-52
2022/11/13 06:49:56;;;;;;;17.88;6.38;;;5.00;11.00;;;;;;5052248;28;20445;-52
2022/11/13 06:52:22;;;;;;;26.00;6.00;;;4.30;1.60;;;;;;5052004;28;20385;-52
2022/11/13 06:54:48;;;;;;;14.30;5.13;;;4.00;1.00;;;;;;5051741;28;20383;-51
2022/11/13 06:57:13;;;;;;;12.57;5.20;;;4.00;1.00;;;;;;5052005;28;20930;-51
2022/11/13 06:59:39;;;;;;;22.70;6.10;;;4.40;1.00;;;;;;5051477;28;20397;-52
2022/11/13 07:02:05;;;;;;;22.23;5.83;;;3.90;1.00;;;;;;5051837;28;20394;-52
2022/11/13 07:04:30;;;;;;;22.90;5.90;;;3.90;1.00;;;;;;5057129;28;20411;-55
2022/11/13 07:06:56;;;;;;;22.38;5.95;;;4.70;1.00;;;;;;5070568;28;20765;-52
2022/11/13 07:09:21;;;;;;;17.60;6.33;;;3.70;6.50;;;;;;5054090;28;20396;-51
2022/11/13 07:11:47;;;;;;;19.27;6.70;;;3.70;13.10;;;;;;5070890;28;20406;-52
2022/11/13 07:14:13;;;;;;;17.13;6.37;;;3.70;24.80;;;;;;5071514;28;20406;-52
2022/11/13 07:16:38;;;;;;;19.93;6.33;;;3.80;26.00;;;;;;5070648;28;20388;-51
2022/11/13 07:19:04;;;;;;;22.65;5.82;;;3.80;13.30;;;;;;5071283;28;20465;-52
2022/11/13 07:21:30;;;;;;;19.90;6.90;;;3.90;8.40;;;;;;5070280;28;20436;-52
2022/11/13 07:23:56;;;;;;;14.50;6.10;;;3.70;1.00;;;;;;5071304;28;20388;-51
2022/11/13 07:26:22;;;;;;;14.00;5.50;;;4.00;1.00;;;;;;5071408;28;20402;-52
2022/11/13 07:28:48;;;;;;;14.07;5.70;;;3.80;1.00;;;;;;5070649;28;21054;-51
2022/11/13 07:31:15;;;;;;;12.43;5.70;;;4.60;1.00;;;;;;5071222;28;20407;-51
2022/11/13 07:33:41;;;;;;;13.13;5.07;;;3.80;10.70;;;;;;5052427;28;20440;-52
2022/11/13 07:36:08;;;;;;;19.42;5.95;;;4.90;10.10;;;;;;5070704;28;20387;-52
2022/11/13 07:38:33;;;;;;;16.08;5.40;;;4.00;1.00;;;;;;5070468;28;20403;-51
2022/11/13 07:40:59;;;;;;;18.05;5.50;;;3.80;1.00;;;;;;5071190;28;20438;-52
2022/11/13 07:43:25;;;;;;;14.40;6.22;;;4.00;1.00;;;;;;5071282;28;20388;-58
2022/11/13 07:45:53;;;;;;;13.35;5.40;;;4.10;1.00;;;;;;5070396;28;20399;-53
2022/11/13 07:48:23;;;;;;;16.88;6.07;;;4.00;1.00;;;;;;5071395;28;20395;-52
2022/11/13 07:50:49;;;;;;;10.88;5.32;;;3.90;1.00;;;;;;5069875;28;20724;-52
2022/11/13 07:53:15;;;;;;;17.15;6.07;;;4.80;1.00;;;;;;5070875;28;20845;-51
2022/11/13 07:55:41;;;;;;;15.27;6.18;;;3.80;1.00;;;;;;5070291;28;20856;-51
2022/11/13 07:58:07;;;;;;;18.73;6.47;;;3.70;1.00;;;;;;5070915;28;20383;-51
2022/11/13 08:00:34;;;;;;;16.30;6.03;;;3.90;1.00;;;;;;5070168;28;20388;-50
2022/11/13 08:03:11;;;;;;;14.60;6.20;;;3.90;1.00;;;;;;5070301;28;20383;-50
2022/11/13 08:05:38;;;;;;;18.40;6.80;;;4.00;1.00;;;;;;5069758;28;20427;-50
2022/11/13 08:08:04;;;;;;;15.50;5.22;;;4.00;1.00;;;;;;5070783;28;20391;-51
2022/11/13 08:10:30;;;;;;;16.30;5.67;;;4.10;1.00;;;;;;5069563;28;20729;-52
2022/11/13 08:13:01;;;;;;;16.00;5.93;;;4.30;1.00;;;;;;5070332;28;20364;-51
2022/11/13 08:15:28;;;;;;;15.18;5.72;;;4.10;1.00;;;;;;5070166;28;20384;-57
2022/11/13 08:17:55;;;;;;;18.75;6.13;;;4.50;1.00;;;;;;5070363;28;20375;-51
2022/11/13 08:20:21;;;;;;;15.63;5.70;;;4.10;1.00;;;;;;5070867;28;20387;-51
2022/11/13 08:22:47;;;;;;;16.08;6.18;;;3.90;1.00;;;;;;5069156;28;20384;-51
2022/11/13 08:25:12;;;;;;;11.73;5.03;;;3.80;1.00;;;;;;5070343;28;20395;-51
2022/11/13 08:27:38;;;;;;;17.80;5.77;;;3.90;1.00;;;;;;5069964;28;20384;-51
2022/11/13 08:30:04;;;;;;;13.20;5.13;;;4.00;1.00;;;;;;5070439;28;20364;-51
2022/11/13 08:32:30;;;;;;;12.87;5.67;;;4.10;1.00;;;;;;5068428;28;20399;-52
2022/11/13 08:34:55;;;;;;;10.48;4.85;;;4.10;1.00;;;;;;5070230;28;20489;-51
2022/11/13 08:37:21;;;;;;;18.27;5.07;;;4.10;1.00;;;;;;5070418;28;20470;-51
2022/11/13 08:39:46;;;;;;;18.10;6.30;;;4.10;1.00;;;;;;5069701;28;20825;-51
2022/11/13 08:42:12;;;;;;;12.73;5.20;;;4.10;1.00;;;;;;5069976;28;20375;-52
2022/11/13 08:44:37;;;;;;;17.50;6.77;;;4.20;1.00;;;;;;5069140;28;20392;-50
2022/11/13 08:47:03;;;;;;;15.30;6.73;;;4.30;1.00;;;;;;5069958;28;20395;-51
2022/11/13 08:49:28;;;;;;;17.90;7.40;;;4.60;1.00;;;;;;5069978;28;20375;-56
2022/11/13 08:51:54;;;;;;;15.90;5.77;;;4.70;1.00;;;;;;5069637;28;20383;-50
2022/11/13 08:54:20;;;;;;;15.57;8.20;;;4.80;1.00;;;;;;5070065;28;20379;-51
2022/11/13 08:56:49;;;;;;;20.20;5.63;;;5.00;1.00;;;;;;5070288;28;20390;-51
2022/11/13 08:59:14;;;;;;;12.07;5.75;;;4.80;1.00;;;;;;5070141;28;20380;-51
2022/11/13 09:01:40;;;;;;;11.30;6.40;;;4.80;1.00;;;;;;5069054;28;20394;-54
2022/11/13 09:04:06;;;;;;;13.15;6.40;;;4.80;1.00;;;;;;5069750;28;20380;-51
2022/11/13 09:06:32;;;;;;;14.60;6.20;;;4.50;1.00;;;;;;5068633;28;20408;-51
2022/11/13 09:08:58;;;;;;;13.50;5.80;;;4.80;1.00;;;;;;5069912;28;20849;-51
2022/11/13 09:11:26;;;;;;;18.40;6.85;;;5.50;1.00;;;;;;5069785;28;20379;-51
2022/11/13 09:13:53;;;;;;;17.10;6.65;;;5.20;1.00;;;;;;5069182;28;20725;-51
2022/11/13 09:16:18;;;;;;;13.00;6.60;;;5.60;1.00;;;;;;5069233;28;20510;-50
2022/11/13 09:18:44;;;;;;;18.10;6.77;;;5.80;1.00;;;;;;5068878;28;20466;-50
2022/11/13 09:21:10;;;;;;;21.00;6.25;;;6.80;99.90;;;;;;5069695;28;20447;-51
2022/11/13 09:23:35;;;;;;;13.90;5.53;;;6.50;99.90;;;;;;5068586;28;20383;-51
2022/11/13 09:26:02;;;;;;;12.80;7.30;;;5.80;21.80;;;;;;5069643;28;20407;-50
2022/11/13 09:28:28;;;;;;;14.55;6.45;;;5.90;99.90;;;;;;5068861;28;20379;-53
2022/11/13 09:30:53;;;;;;;13.63;6.37;;;6.90;97.90;;;;;;5069589;28;20430;-48
2022/11/13 09:33:19;;;;;;;14.20;6.93;;;6.20;1.00;;;;;;5069045;28;20412;-49
2022/11/13 09:35:45;;;;;;;15.73;7.50;;;6.00;1.00;;;;;;5068522;28;20432;-49
2022/11/13 09:38:13;;;;;;;18.08;8.60;;;6.40;59.80;;;;;;5068840;28;20474;-50
2022/11/13 09:40:42;;;;;;;18.98;9.07;;;6.10;80.60;;;;;;5068963;28;20379;-49
2022/11/13 09:43:29;;;;;;;16.30;7.88;;;6.20;99.90;;;;;;5070588;28;20419;-50
2022/11/13 09:46:09;;;;;;;16.35;8.43;;;6.30;16.00;;;;;;5072687;28;20411;-49
2022/11/13 09:48:42;;;;;;;14.15;7.40;;;6.50;1.00;;;;;;5072195;28;20385;-50
2022/11/13 09:51:28;;;;;;;16.60;8.40;;;6.30;1.00;;;;;;5073240;28;20419;-50
2022/11/13 09:53:54;;;;;;;17.77;8.43;;;6.70;1.00;;;;;;5072557;28;20421;-50
2022/11/13 09:56:31;;;;;;;14.77;7.90;;;6.90;1.00;;;;;;5073057;28;20724;-49
2022/11/13 09:59:24;;;;;;;15.20;7.63;;;6.80;1.00;;;;;;5073174;28;20380;-51
2022/11/13 10:01:59;;;;;;;16.73;7.72;;;6.70;50.00;;;;;;5072090;28;20383;-50
2022/11/13 10:05:02;;;;;;;15.40;8.87;;;6.70;1.00;;;;;;5072872;28;20884;-50
2022/11/13 10:08:22;;;;;;;18.38;9.07;;;7.10;99.90;;;;;;5042996;28;20416;-56
2022/11/13 10:11:17;;;;;;;13.45;7.30;;;7.50;99.90;;;;;;5027141;28;20383;-50
2022/11/13 10:13:46;;;;;;;16.77;8.60;;;7.70;99.90;;;;;;5072223;28;20433;-50
2022/11/13 10:16:37;;;;;;;15.37;8.17;;;7.80;1.00;;;;;;5072590;28;20388;-50
2022/11/13 10:19:22;;;;;;;13.70;7.70;;;7.70;1.00;;;;;;5072806;28;20375;-49
2022/11/13 10:21:55;;;;;;;15.00;7.88;;;7.40;1.00;;;;;;5071548;28;20376;-49
2022/11/13 10:24:38;;;;;;;17.25;8.80;;;7.40;99.90;;;;;;5072438;28;20440;-50
2022/11/13 10:27:12;;;;;;;16.15;7.95;;;7.60;17.10;;;;;;5071940;28;20415;-50
2022/11/13 10:29:37;;;;;;;13.80;7.47;;;7.70;84.70;;;;;;5072064;28;20529;-50
2022/11/13 10:32:17;;;;;;;16.70;8.93;;;7.90;99.90;;;;;;5072127;28;20479;-50
2022/11/13 10:34:48;;;;;;;15.93;8.80;;;8.10;1.00;;;;;;5071490;28;20723;-49
2022/11/13 10:38:02;;;;;;;15.50;8.18;;;8.40;1.00;;;;;;5071912;28;20408;-50
2022/11/13 10:40:31;;;;;;;14.33;7.30;;;8.80;99.90;;;;;;5065288;28;20387;-55
2022/11/13 10:43:05;;;;;;;14.73;8.27;;;7.90;99.90;;;;;;5072719;28;20384;-49
2022/11/13 10:45:31;;;;;;;15.05;8.00;;;7.90;1.00;;;;;;5071695;28;20376;-56
2022/11/13 10:47:56;;;;;;;13.75;7.53;;;8.40;1.00;;;;;;5072339;28;20418;-51
2022/11/13 10:50:23;;;;;;;15.63;7.90;;;9.00;99.90;;;;;;5072160;28;20422;-51
2022/11/13 10:52:50;;;;;;;16.43;8.63;;;8.70;1.00;;;;;;5071883;28;20456;-50
2022/11/13 10:55:37;;;;;;;17.00;9.90;;;8.40;1.00;;;;;;5070402;28;20865;-51
2022/11/13 10:58:11;;;;;;;33.10;15.32;;;8.40;99.90;;;;;;5071832;28;20380;-51
2022/11/13 11:00:40;;;;;;;14.70;7.78;;;9.40;1.00;;;;;;5070747;28;20383;-51
2022/11/13 11:03:17;;;;;;;15.07;8.20;;;10.00;1.00;;;;;;5071764;28;20396;-52
2022/11/13 11:05:57;;;;;;;14.70;7.72;;;10.80;99.90;;;;;;5071013;28;20426;-51
2022/11/13 11:08:31;;;;;;;13.70;7.45;;;11.20;99.90;;;;;;5071548;28;20863;-51
2022/11/13 11:13:44;;;;;;;14.80;8.07;;;11.30;1.00;;;;;;5071140;28;20465;-50
2022/11/13 11:16:22;;;;;;;13.90;7.68;;;11.00;1.00;;;;;;5071390;28;20392;-50
2022/11/13 11:19:05;;;;;;;12.50;7.30;;;10.80;1.00;;;;;;5071063;28;20401;-52
2022/11/13 11:21:35;;;;;;;12.30;6.90;;;10.50;1.00;;;;;;5070851;28;20422;-52
2022/11/13 11:24:19;;;;;;;15.07;7.90;;;10.30;98.20;;;;;;5071601;28;20395;-52
2022/11/13 11:27:02;;;;;;;19.27;8.73;;;10.20;74.50;;;;;;5070256;28;20414;-52
2022/11/13 11:29:54;;;;;;;15.85;8.02;;;10.30;87.00;;;;;;5071467;28;20437;-52
2022/11/13 11:32:45;;;;;;;16.58;9.02;;;10.60;16.70;;;;;;5071457;28;20482;-52
2022/11/13 11:35:20;;;;;;;13.30;7.47;;;10.80;33.90;;;;;;5071113;28;20391;-52
2022/11/13 11:38:14;;;;;;;17.17;8.83;;;10.90;1.00;;;;;;5070737;28;20475;-52
2022/11/13 11:40:43;;;;;;;13.00;7.47;;;10.70;1.00;;;;;;5033392;28;20422;-51
2022/11/13 11:43:38;;;;;;;15.13;8.13;;;10.80;36.90;;;;;;5071524;28;20416;-50
2022/11/13 11:46:04;;;;;;;21.48;10.93;;;11.00;18.10;;;;;;5071339;28;20408;-52
2022/11/13 11:48:32;;;;;;;32.55;13.35;;;11.20;1.00;;;;;;5070540;28;20847;-57
2022/11/13 11:51:32;;;;;;;13.90;7.47;;;11.30;1.00;;;;;;5070860;28;20898;-52
2022/11/13 11:54:12;;;;;;;14.27;7.65;;;11.30;1.00;;;;;;5001736;28;20425;-52
2022/11/13 11:56:52;;;;;;;11.83;6.93;;;11.30;1.00;;;;;;5070714;28;20383;-52
2022/11/13 11:59:20;;;;;;;12.98;7.00;;;11.60;1.00;;;;;;5071116;28;20384;-49
2022/11/13 12:02:05;;;;;;;16.60;8.30;;;12.00;1.00;;;;;;5069929;28;20395;-50
2022/11/13 12:05:07;;;;;;;18.42;9.10;;;12.00;1.00;;;;;;5069676;28;20387;-55
2022/11/13 12:07:48;;;;;;;15.33;7.73;;;12.00;1.00;;;;;;5069902;28;20415;-57
2022/11/13 12:10:25;;;;;;;13.50;7.63;;;12.00;1.00;;;;;;5070930;28;20426;-50
2022/11/13 12:13:00;;;;;;;12.85;7.22;;;12.00;1.00;;;;;;5070110;28;20368;-50
2022/11/13 12:15:36;;;;;;;13.70;7.55;;;11.90;1.00;;;;;;5050663;28;20389;-50
2022/11/13 12:18:05;;;;;;;13.38;7.45;;;11.90;1.00;;;;;;5050769;28;20439;-50
2022/11/13 12:20:46;;;;;;;12.35;7.60;;;12.10;1.00;;;;;;5050201;28;20425;-54
2022/11/13 12:23:56;;;;;;;13.05;7.80;;;12.40;1.00;;;;;;5050610;28;20746;-49
2022/11/13 12:26:29;;;;;;;12.73;7.00;;;12.50;1.00;;;;;;5050395;28;20514;-53
2022/11/13 12:29:17;;;;;;;16.83;7.65;;;12.60;1.00;;;;;;5049631;28;20439;-49
2022/11/13 12:32:06;;;;;;;14.35;7.20;;;12.60;1.00;;;;;;5049326;28;20450;-50
2022/11/13 12:34:43;;;;;;;14.98;7.70;;;12.40;1.00;;;;;;5050463;28;20425;-56
2022/11/13 12:37:20;;;;;;;14.48;7.28;;;12.50;1.00;;;;;;5050250;28;20408;-50
2022/11/13 12:39:57;;;;;;;13.85;7.82;;;12.70;1.00;;;;;;5049240;28;20373;-50
2022/11/13 12:42:34;;;;;;;14.23;7.88;;;12.70;1.00;;;;;;5049899;28;20397;-50
2022/11/13 12:45:19;;;;;;;13.15;7.15;;;12.80;1.00;;;;;;5049890;28;20479;-50
2022/11/13 12:47:48;;;;;;;13.60;7.22;;;12.70;1.00;;;;;;5049309;28;20404;-50
2022/11/13 12:50:29;;;;;;;13.40;7.90;;;12.50;1.00;;;;;;5057608;28;20446;-51
2022/11/13 12:53:11;;;;;;;13.82;7.20;;;12.70;1.00;;;;;;5065481;28;20790;-52
2022/11/13 12:55:39;;;;;;;13.25;7.30;;;12.70;1.00;;;;;;5067033;28;20376;-51
2022/11/13 12:58:16;;;;;;;12.80;7.20;;;12.90;1.00;;;;;;5069696;28;20860;-50
2022/11/13 13:00:53;;;;;;;14.93;7.80;;;12.80;1.00;;;;;;5066807;28;20371;-51
2022/11/13 13:03:43;;;;;;;14.82;7.90;;;12.50;1.00;;;;;;5069135;28;20967;-51
2022/11/13 13:06:29;;;;;;;14.02;8.02;;;12.40;1.00;;;;;;5066420;28;20456;-50